createdAt,value
2023-02-02T00:00:02.103Z,2.2
2023-02-02T00:05:01.055Z,2.5
2023-02-02T00:10:01.574Z,3.0
2023-02-02T00:15:01.487Z,2.8
2023-02-02T00:20:01.200Z,2.6
2023-02-02T00:25:01.096Z,2.4
2023-02-02T00:30:01.481Z,3.1
2023-02-02T00:35:01.067Z,2.8
2023-02-02T00:40:01.111Z,3.2
2023-02-02T00:45:02.168Z,4.0
2023-02-02T00:50:01.129Z,4.2
2023-02-02T00:55:01.159Z,4.0
2023-02-02T01:00:01.950Z,4.0
2023-02-02T01:05:01.068Z,3.8
2023-02-02T01:10:01.084Z,3.0
2023-02-02T01:15:02.115Z,2.9
2023-02-02T01:20:01.127Z,2.7
2023-02-02T01:25:01.070Z,3.0
2023-02-02T01:30:01.560Z,3.2
2023-02-02T01:35:01.075Z,3.0
2023-02-02T01:40:01.093Z,2.7
2023-02-02T01:45:06.610Z,3.4
2023-02-02T01:50:01.609Z,3.2
2023-02-02T01:55:01.066Z,2.6
2023-02-02T02:00:03.937Z,3.6
2023-02-02T02:05:01.069Z,4.3
2023-02-02T02:10:01.168Z,3.4
2023-02-02T02:15:01.593Z,3.5
2023-02-02T02:20:01.122Z,3.6
2023-02-02T02:25:01.067Z,2.6
2023-02-02T02:30:10.654Z,2.2
2023-02-02T02:35:01.056Z,1.8
2023-02-02T02:40:01.089Z,1.3
2023-02-02T02:45:03.012Z,2.0
2023-02-02T02:50:01.063Z,2.3
2023-02-02T02:55:01.082Z,1.9
2023-02-02T03:00:16.425Z,1.9
2023-02-02T03:10:01.062Z,1.6
2023-02-02T03:15:03.786Z,1.8
2023-02-02T03:20:01.088Z,1.7
2023-02-02T03:25:01.078Z,2.7
2023-02-02T03:30:01.870Z,2.9
2023-02-02T03:35:01.063Z,2.8
2023-02-02T03:40:01.135Z,2.4
2023-02-02T03:45:01.981Z,2.8
2023-02-02T03:50:01.051Z,1.9
2023-02-02T03:55:01.568Z,1.7
2023-02-02T04:00:01.938Z,1.4
2023-02-02T04:05:01.062Z,1.2
2023-02-02T04:10:01.075Z,1.0
2023-02-02T04:15:01.884Z,1.2
2023-02-02T04:20:01.141Z,1.6
2023-02-02T04:25:01.484Z,1.8
2023-02-02T04:30:01.578Z,2.0
2023-02-02T04:35:01.080Z,1.8
2023-02-02T04:40:01.093Z,1.7
2023-02-02T04:45:01.731Z,1.3
2023-02-02T04:50:01.072Z,1.1
2023-02-02T04:55:01.192Z,1.2
2023-02-02T05:00:02.100Z,1.9
2023-02-02T05:05:01.077Z,2.6
2023-02-02T05:10:01.092Z,3.0
2023-02-02T05:15:01.900Z,3.8
2023-02-02T05:20:01.094Z,3.7
2023-02-02T05:25:01.103Z,3.4
2023-02-02T05:30:01.738Z,3.4
2023-02-02T05:35:01.155Z,3.0
2023-02-02T05:40:01.132Z,2.8
2023-02-02T05:45:01.612Z,2.8
2023-02-02T05:50:01.140Z,3.1
2023-02-02T05:55:01.167Z,2.7
2023-02-02T06:00:02.265Z,3.2
2023-02-02T06:05:01.064Z,2.8
2023-02-02T06:10:01.607Z,3.0
2023-02-02T06:15:01.507Z,3.0
2023-02-02T06:25:01.144Z,2.8
2023-02-02T06:30:01.794Z,2.7
2023-02-02T06:35:01.112Z,4.1
2023-02-02T06:40:01.140Z,3.8
2023-02-02T06:45:02.789Z,3.6
2023-02-02T06:50:01.058Z,3.7
2023-02-02T06:55:01.555Z,3.8
2023-02-02T07:00:02.365Z,2.5
2023-02-02T07:05:01.078Z,3.5
2023-02-02T07:10:01.080Z,3.7
2023-02-02T07:15:01.716Z,3.5
2023-02-02T07:20:01.591Z,3.7
2023-02-02T07:25:01.081Z,4.0
2023-02-02T07:30:01.490Z,3.4
2023-02-02T07:35:01.080Z,2.8
2023-02-02T07:45:24.775Z,3.5
2023-02-02T07:50:01.064Z,2.8
2023-02-02T07:55:13.810Z,2.4
2023-02-02T08:00:02.161Z,2.6
2023-02-02T08:10:01.197Z,2.0
2023-02-02T08:15:01.768Z,2.2
2023-02-02T08:25:01.193Z,2.7
2023-02-02T08:30:01.479Z,2.7
2023-02-02T08:35:01.081Z,2.8
2023-02-02T08:40:01.081Z,2.9
2023-02-02T08:46:01.025Z,3.4
2023-02-02T08:50:01.097Z,3.9
2023-02-02T08:55:01.064Z,4.8
2023-02-02T09:00:03.268Z,5.1
2023-02-02T09:05:01.091Z,5.9
2023-02-02T09:10:01.081Z,5.8
2023-02-02T09:15:01.439Z,5.8
2023-02-02T09:25:01.214Z,6.3
2023-02-02T09:30:01.587Z,6.3
2023-02-02T09:35:01.600Z,8.1
2023-02-02T09:40:01.102Z,7.5
2023-02-02T09:45:06.490Z,7.2
2023-02-02T09:50:01.069Z,7.0
2023-02-02T10:00:02.674Z,5.2
2023-02-02T10:05:01.094Z,5.8
2023-02-02T10:10:01.057Z,6.2
2023-02-02T10:15:16.892Z,5.8
2023-02-02T10:25:01.120Z,6.8
2023-02-02T10:36:07.630Z,6.1
2023-02-02T10:41:01.111Z,7.7
2023-02-02T10:46:01.089Z,8.6
2023-02-02T10:51:01.070Z,7.8
2023-02-02T10:56:04.825Z,8.1
2023-02-02T11:01:01.062Z,8.3
2023-02-02T11:06:03.401Z,6.2
2023-02-02T11:11:01.085Z,4.8
2023-02-02T11:16:05.517Z,5.0
2023-02-02T11:21:01.074Z,4.8
2023-02-02T11:26:01.071Z,5.3
2023-02-02T11:31:01.158Z,5.5
2023-02-02T11:41:01.508Z,5.0
2023-02-02T11:46:02.928Z,4.7
2023-02-02T11:51:01.191Z,4.5
2023-02-02T11:56:01.064Z,6.2
2023-02-02T12:06:01.159Z,6.9
2023-02-02T12:11:01.169Z,7.1
2023-02-02T12:16:01.095Z,6.6
2023-02-02T12:21:01.082Z,5.5
2023-02-02T12:26:01.089Z,5.9
2023-02-02T12:31:01.139Z,5.7
2023-02-02T12:36:01.071Z,5.2
2023-02-02T12:41:01.587Z,5.3
2023-02-02T12:46:01.156Z,4.8
2023-02-02T12:51:01.128Z,4.2
2023-02-02T12:56:01.078Z,4.4
2023-02-02T13:01:01.157Z,4.0
2023-02-02T13:06:01.083Z,3.8
2023-02-02T13:11:01.076Z,3.4
2023-02-02T13:21:04.721Z,2.2
2023-02-02T13:26:01.157Z,2.4
2023-02-02T13:31:01.167Z,2.8
2023-02-02T13:36:01.067Z,3.0
2023-02-02T13:41:01.082Z,2.8
2023-02-02T13:46:01.076Z,3.1
2023-02-02T13:51:01.076Z,3.0
2023-02-02T13:56:01.060Z,2.2
2023-02-02T14:06:01.166Z,2.5
2023-02-02T14:16:01.085Z,2.9
2023-02-02T14:21:01.103Z,3.5
2023-02-02T14:26:03.123Z,4.0
2023-02-02T14:31:01.154Z,3.7
2023-02-02T14:37:01.055Z,3.4
2023-02-02T14:42:01.101Z,3.2
2023-02-02T14:47:01.079Z,2.9
2023-02-02T14:52:01.181Z,2.5
2023-02-02T14:57:01.060Z,2.6
2023-02-02T15:02:01.200Z,2.5
2023-02-02T15:07:01.189Z,3.2
2023-02-02T15:12:01.892Z,3.0
2023-02-02T15:17:01.069Z,2.6
2023-02-02T15:27:01.098Z,2.9
2023-02-02T15:32:01.178Z,2.4
2023-02-02T15:42:04.172Z,2.6
2023-02-02T15:47:01.057Z,2.7
2023-02-02T15:52:01.054Z,2.5
2023-02-02T15:57:01.070Z,2.3
2023-02-02T16:02:17.372Z,2.1
2023-02-02T16:12:01.063Z,2.0
2023-02-02T16:17:01.128Z,3.1
2023-02-02T16:22:05.059Z,3.5
2023-02-02T16:27:01.126Z,3.7
2023-02-02T16:37:04.078Z,4.1
2023-02-02T16:42:01.182Z,3.9
2023-02-02T16:47:03.510Z,4.3
2023-02-02T16:52:11.922Z,6.5
2023-02-02T16:57:01.114Z,7.1
2023-02-02T17:02:01.208Z,7.4
2023-02-02T17:07:01.667Z,8.0
2023-02-02T17:12:01.109Z,10.5
2023-02-02T17:22:01.169Z,13.6
2023-02-02T17:27:01.082Z,14.8
2023-02-02T17:32:01.136Z,16.1
2023-02-02T17:38:01.092Z,16.3
2023-02-02T17:43:01.058Z,20.6
2023-02-02T17:48:01.062Z,18.7
2023-02-02T17:53:01.066Z,20.8
2023-02-02T17:58:01.117Z,21.8
2023-02-02T18:03:01.168Z,23.5
2023-02-02T18:08:01.981Z,21.2
2023-02-02T18:13:01.066Z,22.0
2023-02-02T18:18:01.090Z,19.5
2023-02-02T18:23:01.067Z,17.5
2023-02-02T18:28:01.080Z,14.5
2023-02-02T18:33:01.181Z,11.4
2023-02-02T18:38:01.109Z,10.5
2023-02-02T18:43:01.070Z,9.6
2023-02-02T18:48:01.074Z,10.6
2023-02-02T18:59:01.077Z,11.5
2023-02-02T19:04:01.107Z,12.9
2023-02-02T19:09:03.060Z,14.0
2023-02-02T19:14:01.066Z,13.4
2023-02-02T19:19:01.097Z,13.7
2023-02-02T19:24:01.100Z,14.1
2023-02-02T19:29:01.088Z,12.9
2023-02-02T19:34:01.074Z,12.6
2023-02-02T19:39:01.105Z,12.9
2023-02-02T19:44:01.116Z,12.8
2023-02-02T19:49:01.096Z,12.4
2023-02-02T19:54:01.100Z,13.4
2023-02-02T19:59:01.125Z,14.0
2023-02-02T20:04:01.066Z,13.5
2023-02-02T20:09:01.115Z,13.2
2023-02-02T20:14:01.078Z,12.6
2023-02-02T20:19:01.109Z,11.5
2023-02-02T20:24:01.659Z,10.9
2023-02-02T20:29:01.097Z,9.9
2023-02-02T20:34:01.072Z,10.1
2023-02-02T20:39:01.120Z,10.7
2023-02-02T20:44:01.062Z,12.3
2023-02-02T20:49:06.197Z,12.1
2023-02-02T20:54:01.072Z,13.9
2023-02-02T20:59:01.126Z,13.8
2023-02-02T21:04:01.063Z,12.9
2023-02-02T21:09:01.076Z,10.4
2023-02-02T21:14:01.093Z,10.6
2023-02-02T21:19:01.134Z,9.0
2023-02-02T21:24:01.630Z,9.2
2023-02-02T21:29:01.067Z,10.0
2023-02-02T21:34:01.064Z,10.3
2023-02-02T21:39:01.102Z,9.5
2023-02-02T21:44:01.086Z,9.4
2023-02-02T21:49:01.058Z,8.1
2023-02-02T21:54:01.162Z,7.8
2023-02-02T21:59:01.137Z,8.2
2023-02-02T22:04:01.159Z,8.8
2023-02-02T22:09:01.068Z,10.2
2023-02-02T22:19:01.081Z,10.0
2023-02-02T22:24:01.466Z,9.1
2023-02-02T22:34:01.099Z,8.6
2023-02-02T22:44:01.101Z,9.1
2023-02-02T22:49:01.071Z,9.2
2023-02-02T22:54:01.148Z,8.8
2023-02-02T22:59:01.078Z,8.0
2023-02-02T23:04:01.164Z,8.1
2023-02-02T23:09:01.065Z,7.7
2023-02-02T23:14:01.085Z,7.5
2023-02-02T23:19:01.059Z,7.8
2023-02-02T23:24:01.133Z,7.4
2023-02-02T23:29:01.056Z,8.1
2023-02-02T23:34:01.060Z,9.0
2023-02-02T23:39:02.216Z,9.5
2023-02-02T23:44:01.096Z,10.1
2023-02-02T23:49:01.073Z,10.8
2023-02-02T23:54:01.079Z,10.7
2023-02-02T23:59:01.718Z,10.8
